createdAt,value
2023-11-21T07:01:01.867Z,25.53
2023-11-21T07:04:05.182Z,18.45
2023-11-21T07:07:08.418Z,19.77
2023-11-21T07:10:11.260Z,16.85
2023-11-21T07:13:13.684Z,17.10
2023-11-21T07:16:17.979Z,15.43
2023-11-21T07:22:23.639Z,25.75
2023-11-21T07:25:26.134Z,22.62
2023-11-21T07:28:28.888Z,18.85
2023-11-21T07:31:35.498Z,15.82
2023-11-21T07:34:38.382Z,16.12
2023-11-21T07:37:40.912Z,12.52
2023-11-21T07:40:43.700Z,11.40
2023-11-21T07:43:46.409Z,13.00
2023-11-21T07:46:53.143Z,11.50
2023-11-21T07:49:57.260Z,14.07
2023-11-21T07:53:00.713Z,11.30
2023-11-21T07:56:04.343Z,12.10
2023-11-21T07:59:07.065Z,10.95
2023-11-21T08:02:10.944Z,13.75
2023-11-21T08:05:18.959Z,15.18
2023-11-21T08:08:28.670Z,23.05
2023-11-21T08:14:40.023Z,19.85
2023-11-21T08:17:44.580Z,16.50
2023-11-21T08:20:48.719Z,14.35
2023-11-21T08:23:55.407Z,15.52
2023-11-21T08:26:58.020Z,14.00
2023-11-21T08:30:01.143Z,13.60
2023-11-21T08:33:05.082Z,13.02
2023-11-21T08:36:08.820Z,12.82
2023-11-21T08:39:11.383Z,16.75
2023-11-21T08:42:14.266Z,17.80
2023-11-21T08:45:18.500Z,18.25
2023-11-21T08:48:22.703Z,18.15
2023-11-21T08:54:27.606Z,19.23
2023-11-21T08:57:30.963Z,17.80
2023-11-21T09:00:34.153Z,18.75
2023-11-21T09:03:38.595Z,21.40
2023-11-21T09:06:41.452Z,27.62
2023-11-21T09:09:43.922Z,23.12
2023-11-21T09:12:46.713Z,22.90
2023-11-21T09:15:50.956Z,19.90
2023-11-21T09:18:55.062Z,16.40
2023-11-21T09:21:58.397Z,14.45
2023-11-21T09:25:01.084Z,21.90
2023-11-21T09:28:06.094Z,12.90
2023-11-21T09:31:10.572Z,13.77
2023-11-21T09:34:17.967Z,13.13
2023-11-21T09:37:20.796Z,12.65
2023-11-21T09:40:23.824Z,14.00
2023-11-21T09:43:28.702Z,12.30
2023-11-21T09:46:31.850Z,11.00
2023-11-21T09:49:35.980Z,10.63
2023-11-21T09:52:42.352Z,8.68
2023-11-21T09:55:46.188Z,8.57
2023-11-21T09:58:48.757Z,9.20
2023-11-21T10:01:53.185Z,9.25
2023-11-21T10:04:57.937Z,13.30
2023-11-21T10:08:00.507Z,11.15
2023-11-21T10:11:03.606Z,9.30
2023-11-21T10:14:06.131Z,9.48
2023-11-21T10:17:10.401Z,9.60
2023-11-21T10:20:14.674Z,9.25
2023-11-21T10:23:17.437Z,10.02
2023-11-21T10:26:29.282Z,9.10
2023-11-21T10:29:36.737Z,9.40
2023-11-21T10:32:39.305Z,10.43
2023-11-21T10:35:52.032Z,10.65
2023-11-21T10:38:54.663Z,13.82
2023-11-21T10:41:57.517Z,18.92
2023-11-21T10:45:01.785Z,20.02
2023-11-21T10:48:06.484Z,20.27
2023-11-21T10:51:13.415Z,15.60
2023-11-21T10:54:19.032Z,16.25
2023-11-21T10:57:23.072Z,12.32
2023-11-21T11:00:25.942Z,11.30
2023-11-21T11:03:28.506Z,10.70
2023-11-21T11:06:33.917Z,9.63
2023-11-21T11:09:36.482Z,11.00
2023-11-21T11:12:39.608Z,10.20
2023-11-21T11:15:42.320Z,10.82
2023-11-21T11:18:46.123Z,11.77
2023-11-21T11:21:55.013Z,12.50
2023-11-21T11:25:20.056Z,13.75
2023-11-21T11:28:23.005Z,14.45
2023-11-21T11:31:28.752Z,14.50
2023-11-21T11:34:32.921Z,14.23
2023-11-21T11:37:37.222Z,11.05
2023-11-21T11:43:45.884Z,11.95
2023-11-21T11:46:48.688Z,10.57
2023-11-21T11:50:20.969Z,10.87
2023-11-21T11:53:24.890Z,8.57
2023-11-21T11:56:29.508Z,8.32
2023-11-21T11:59:31.917Z,8.82
2023-11-21T12:02:34.737Z,8.38
2023-11-21T12:05:40.278Z,9.03
2023-11-21T12:08:45.726Z,9.55
2023-11-21T12:11:48.526Z,10.52
2023-11-21T12:14:50.996Z,10.27
2023-11-21T12:17:53.740Z,10.23
2023-11-21T12:20:56.388Z,9.85
2023-11-21T12:24:01.296Z,9.67
2023-11-21T12:27:04.279Z,7.35
2023-11-21T12:30:14.284Z,12.48
2023-11-21T12:33:18.821Z,6.80
2023-11-21T12:36:22.676Z,6.57
2023-11-21T12:39:26.480Z,6.75
2023-11-21T12:42:31.985Z,7.40
2023-11-21T12:45:35.110Z,11.82
2023-11-21T12:48:38.635Z,13.18
2023-11-21T12:51:41.066Z,14.93
2023-11-21T12:54:45.134Z,14.38
2023-11-21T12:57:51.035Z,12.95
2023-11-21T13:00:55.176Z,13.05
2023-11-21T13:07:07.792Z,9.15
2023-11-21T13:10:11.688Z,10.55
2023-11-21T13:13:19.821Z,10.18
2023-11-21T13:16:24.992Z,10.57
2023-11-21T13:19:30.853Z,10.00
2023-11-21T13:22:34.241Z,9.15
2023-11-21T13:25:38.850Z,8.38
2023-11-21T13:28:46.907Z,9.48
2023-11-21T13:31:51.909Z,12.05
2023-11-21T13:34:55.402Z,9.98
2023-11-21T13:38:00.964Z,9.73
2023-11-21T13:41:08.615Z,14.05
2023-11-21T13:44:27.312Z,9.82
2023-11-21T13:47:32.179Z,8.13
2023-11-21T13:50:35.015Z,9.55
2023-11-21T13:53:38.822Z,8.90
2023-11-21T13:56:46.262Z,9.10
2023-11-21T13:59:50.219Z,7.87
2023-11-21T14:05:57.584Z,6.12
2023-11-21T14:09:01.775Z,6.10
2023-11-21T14:12:08.953Z,5.55
2023-11-21T14:15:13.400Z,7.20
2023-11-21T14:18:18.248Z,10.48
2023-11-21T14:21:20.735Z,9.68
2023-11-21T14:24:25.214Z,9.52
2023-11-21T14:27:29.946Z,20.25
2023-11-21T14:30:37.197Z,14.57
2023-11-21T14:33:39.620Z,9.05
2023-11-21T14:36:44.107Z,10.30
2023-11-21T14:39:49.878Z,8.10
2023-11-21T14:42:55.468Z,8.98
2023-11-21T14:45:58.574Z,9.70
2023-11-21T14:49:15.699Z,9.38
2023-11-21T14:52:35.038Z,10.60
2023-11-21T14:55:53.349Z,8.63
2023-11-21T14:58:57.817Z,8.27
2023-11-21T15:02:10.943Z,9.35
2023-11-21T15:05:17.721Z,11.43
2023-11-21T15:08:31.480Z,8.60
2023-11-21T15:11:34.289Z,9.90
2023-11-21T15:14:38.485Z,8.57
2023-11-21T15:17:43.997Z,11.55
2023-11-21T15:20:47.030Z,43.20
2023-11-21T15:23:49.608Z,27.50
2023-11-21T15:26:52.365Z,27.00
2023-11-21T15:29:56.224Z,26.80
2023-11-21T15:32:59.292Z,20.65
2023-11-21T15:36:01.823Z,23.25
2023-11-21T15:39:04.608Z,30.00
2023-11-21T15:42:11.210Z,18.23
2023-11-21T15:45:16.192Z,14.63
2023-11-21T15:48:19.098Z,21.37
2023-11-21T15:51:21.847Z,18.15
2023-11-21T15:54:25.833Z,16.33
2023-11-21T15:57:28.650Z,14.20
2023-11-21T16:00:32.502Z,15.98
2023-11-21T16:03:35.426Z,14.25
2023-11-21T16:06:40.459Z,45.17
2023-11-21T16:09:44.265Z,17.60
2023-11-21T16:12:47.535Z,20.08
2023-11-21T16:15:52.347Z,22.45
2023-11-21T16:18:54.960Z,21.70
2023-11-21T16:21:57.688Z,23.25
2023-11-21T16:25:01.357Z,23.50
2023-11-21T16:31:11.366Z,23.92
2023-11-21T16:34:19.580Z,20.40
2023-11-21T16:37:22.634Z,20.80
2023-11-21T16:40:25.765Z,20.15
2023-11-21T16:43:28.229Z,21.17
2023-11-21T16:46:32.337Z,20.92
2023-11-21T16:52:39.420Z,19.92
2023-11-21T16:55:41.859Z,20.30
2023-11-21T16:58:45.007Z,21.30
